createdAt,value
2019-04-21T00:00:31.837Z,0.00
2019-04-21T00:01:30.716Z,0.00
2019-04-21T00:02:35.727Z,0.00
2019-04-21T00:03:38.325Z,0.00
2019-04-21T00:04:43.246Z,0.00
2019-04-21T00:05:52.995Z,0.00
2019-04-21T00:06:48.424Z,0.00
2019-04-21T00:07:50.751Z,0.00
2019-04-21T00:08:54.120Z,0.00
2019-04-21T00:09:56.260Z,0.00
2019-04-21T00:10:51.318Z,0.00
2019-04-21T00:11:48.335Z,0.00
2019-04-21T00:12:47.201Z,0.00
2019-04-21T00:13:42.490Z,0.00
2019-04-21T00:14:43.596Z,0.00
2019-04-21T00:15:38.391Z,0.00
2019-04-21T00:16:40.662Z,0.00
2019-04-21T00:17:32.048Z,0.00
2019-04-21T00:18:39.717Z,0.00
2019-04-21T00:19:33.584Z,0.00
2019-04-21T00:20:38.227Z,0.00
2019-04-21T00:21:39.580Z,0.00
2019-04-21T00:22:44.331Z,0.00
2019-04-21T00:23:48.084Z,0.00
2019-04-21T00:24:44.459Z,0.00
2019-04-21T00:25:42.685Z,0.00
2019-04-21T00:26:48.125Z,0.00
2019-04-21T00:27:47.501Z,0.00
2019-04-21T00:29:01.329Z,0.00
2019-04-21T00:29:47.912Z,0.00
2019-04-21T00:30:50.849Z,0.00
2019-04-21T00:31:45.563Z,0.00
2019-04-21T00:32:41.826Z,0.00
2019-04-21T00:33:34.309Z,0.00
2019-04-21T00:34:30.316Z,0.00
2019-04-21T00:35:34.520Z,0.00
2019-04-21T00:36:42.772Z,0.00
2019-04-21T00:38:59.078Z,0.00
2019-04-21T00:40:02.166Z,0.00
2019-04-21T00:40:56.723Z,0.00
2019-04-21T00:41:56.175Z,0.00
2019-04-21T00:42:48.779Z,0.00
2019-04-21T00:43:44.760Z,0.00
2019-04-21T00:44:45.815Z,0.00
2019-04-21T00:45:41.789Z,0.00
2019-04-21T00:46:44.870Z,0.00
2019-04-21T00:47:49.859Z,0.00
2019-04-21T00:48:53.566Z,0.00
2019-04-21T00:49:52.720Z,0.00
2019-04-21T00:51:04.169Z,0.00
2019-04-21T00:52:11.396Z,0.00
2019-04-21T00:52:58.078Z,0.00
2019-04-21T00:54:02.739Z,0.00
2019-04-21T00:54:57.816Z,0.00
2019-04-21T00:55:48.646Z,0.00
2019-04-21T00:56:56.923Z,0.00
2019-04-21T00:57:58.690Z,0.00
2019-04-21T00:58:53.693Z,0.00
2019-04-21T00:59:50.529Z,0.00
2019-04-21T01:00:51.338Z,0.00
2019-04-21T01:01:49.326Z,0.00
2019-04-21T01:02:56.551Z,0.00
2019-04-21T01:03:51.991Z,0.00
2019-04-21T01:04:49.908Z,0.00
2019-04-21T01:05:58.941Z,0.00
2019-04-21T01:06:56.183Z,0.00
2019-04-21T01:07:50.621Z,0.00
2019-04-21T01:08:48.876Z,0.00
2019-04-21T01:09:46.334Z,0.00
2019-04-21T01:10:44.024Z,0.00
2019-04-21T01:11:49.540Z,0.00
2019-04-21T01:13:02.763Z,0.00
2019-04-21T01:13:51.761Z,0.00
2019-04-21T01:14:56.100Z,0.00
2019-04-21T01:15:54.632Z,0.00
2019-04-21T01:16:56.125Z,0.00
2019-04-21T01:17:52.221Z,0.00
2019-04-21T01:18:51.711Z,0.00
2019-04-21T01:19:44.169Z,0.00
2019-04-21T01:20:29.807Z,0.00
2019-04-21T01:21:28.800Z,0.00
2019-04-21T01:22:28.812Z,0.00
2019-04-21T01:23:29.714Z,0.00
2019-04-21T01:24:34.684Z,0.00
2019-04-21T01:25:36.624Z,0.00
2019-04-21T01:26:41.665Z,0.00
2019-04-21T01:27:52.120Z,0.00
2019-04-21T01:28:51.137Z,0.00
2019-04-21T01:30:05.676Z,0.00
2019-04-21T01:30:54.829Z,0.00
2019-04-21T01:31:42.636Z,0.00
2019-04-21T01:32:53.305Z,0.00
2019-04-21T01:33:53.087Z,0.00
2019-04-21T01:34:51.352Z,0.00
2019-04-21T01:35:47.947Z,0.00
2019-04-21T01:36:48.615Z,0.00
2019-04-21T01:37:57.825Z,0.00
2019-04-21T01:38:58.978Z,0.00
2019-04-21T01:39:53.578Z,0.00
2019-04-21T01:40:53.135Z,0.00
2019-04-21T01:41:51.391Z,0.00
2019-04-21T01:42:52.865Z,0.00
2019-04-21T01:43:50.329Z,0.00
2019-04-21T01:44:53.565Z,0.00
2019-04-21T01:45:51.938Z,0.00
2019-04-21T01:46:45.843Z,0.00
2019-04-21T01:47:46.334Z,0.00
2019-04-21T01:48:45.886Z,0.00
2019-04-21T01:49:41.662Z,0.00
2019-04-21T01:50:48.317Z,0.00
2019-04-21T01:52:02.828Z,0.00
2019-04-21T01:52:55.960Z,0.00
2019-04-21T01:53:48.189Z,0.00
2019-04-21T01:54:53.480Z,0.00
2019-04-21T01:55:52.494Z,0.00
2019-04-21T01:56:48.865Z,0.00
2019-04-21T01:57:45.214Z,0.00
2019-04-21T01:58:42.557Z,0.00
2019-04-21T01:59:43.905Z,0.00
2019-04-21T02:00:45.342Z,0.00
2019-04-21T02:01:48.539Z,0.00
2019-04-21T02:02:54.562Z,0.00
2019-04-21T02:03:54.359Z,0.00
2019-04-21T02:04:57.789Z,0.00
2019-04-21T02:05:52.995Z,0.00
2019-04-21T02:06:50.544Z,0.00
2019-04-21T02:07:49.303Z,0.00
2019-04-21T02:08:52.533Z,0.00
2019-04-21T02:09:55.170Z,0.00
2019-04-21T02:10:54.613Z,0.00
2019-04-21T02:11:50.702Z,0.00
2019-04-21T02:12:52.465Z,0.00
2019-04-21T02:13:57.687Z,0.00
2019-04-21T02:15:00.735Z,0.00
2019-04-21T02:15:55.537Z,0.00
2019-04-21T02:16:47.987Z,0.00
2019-04-21T02:17:52.020Z,0.00
2019-04-21T02:18:52.624Z,0.00
2019-04-21T02:19:46.389Z,0.00
2019-04-21T02:20:39.865Z,0.00
2019-04-21T02:21:44.920Z,0.00
2019-04-21T02:23:07.370Z,0.00
2019-04-21T02:23:54.038Z,0.00
2019-04-21T02:24:57.378Z,0.00
2019-04-21T02:25:50.610Z,0.00
2019-04-21T02:26:55.961Z,0.00
2019-04-21T02:27:54.755Z,0.00
2019-04-21T02:28:57.435Z,0.00
2019-04-21T02:29:55.971Z,0.00
2019-04-21T02:31:06.076Z,0.00
2019-04-21T02:32:07.877Z,0.00
2019-04-21T02:33:18.481Z,0.00
2019-04-21T02:34:00.275Z,0.00
2019-04-21T02:36:15.073Z,0.00
2019-04-21T02:38:05.048Z,0.00
2019-04-21T02:40:07.024Z,0.00
2019-04-21T02:42:26.448Z,0.00
2019-04-21T02:43:05.370Z,0.00
2019-04-21T02:45:00.370Z,0.00
2019-04-21T02:47:00.556Z,0.00
2019-04-21T02:48:04.417Z,0.00
2019-04-21T02:50:52.914Z,0.00
2019-04-21T02:52:09.163Z,0.00
2019-04-21T02:53:01.409Z,0.00
2019-04-21T02:56:05.711Z,0.00
2019-04-21T02:57:04.871Z,0.00
2019-04-21T02:58:06.060Z,0.00
2019-04-21T02:58:59.773Z,0.00
2019-04-21T03:03:19.936Z,0.00
2019-04-21T03:04:18.566Z,0.00
2019-04-21T03:06:25.031Z,0.00
2019-04-21T03:08:28.062Z,0.00
2019-04-21T03:09:24.098Z,0.00
2019-04-21T03:10:26.254Z,0.00
2019-04-21T03:11:14.501Z,0.00
2019-04-21T03:12:20.200Z,0.00
2019-04-21T03:13:21.708Z,0.00
2019-04-21T03:14:31.146Z,0.00
2019-04-21T03:15:21.355Z,0.00
2019-04-21T03:17:26.738Z,0.00
2019-04-21T03:18:25.377Z,0.00
2019-04-21T03:19:33.204Z,0.00
2019-04-21T03:22:20.400Z,0.00
2019-04-21T03:24:18.394Z,0.00
2019-04-21T03:25:45.302Z,0.00
2019-04-21T03:26:27.419Z,0.00
2019-04-21T03:28:22.320Z,0.00
2019-04-21T03:29:32.834Z,0.00
2019-04-21T03:30:26.353Z,0.00
2019-04-21T03:31:35.326Z,0.00
2019-04-21T03:36:43.897Z,0.00
2019-04-21T03:37:23.519Z,0.00
2019-04-21T03:38:24.642Z,0.00
2019-04-21T03:39:18.247Z,0.00
2019-04-21T03:41:26.498Z,0.00
2019-04-21T03:42:26.955Z,0.00
2019-04-21T03:43:25.026Z,0.00
2019-04-21T03:45:25.183Z,0.00
2019-04-21T03:46:24.710Z,0.00
2019-04-21T03:47:26.878Z,0.00
2019-04-21T03:48:21.719Z,4.00
2019-04-21T03:50:22.721Z,0.00
2019-04-21T03:51:23.187Z,4.00
2019-04-21T03:52:20.082Z,4.00
2019-04-21T03:53:18.526Z,0.00
2019-04-21T03:54:15.604Z,4.00
2019-04-21T03:55:42.911Z,4.00
2019-04-21T03:56:27.048Z,4.00
2019-04-21T03:57:32.392Z,4.00
2019-04-21T03:59:19.717Z,4.00
2019-04-21T04:00:37.712Z,8.00
2019-04-21T04:02:26.324Z,8.00
2019-04-21T04:03:44.257Z,8.00
2019-04-21T04:04:27.961Z,12.00
2019-04-21T04:05:24.321Z,12.00
2019-04-21T04:06:19.646Z,16.00
2019-04-21T04:08:31.473Z,20.00
2019-04-21T04:09:37.848Z,24.00
2019-04-21T04:10:33.939Z,24.00
2019-04-21T04:13:44.914Z,36.00
2019-04-21T04:14:26.857Z,40.00
2019-04-21T04:15:28.982Z,48.00
2019-04-21T04:16:20.402Z,52.00
2019-04-21T04:17:20.353Z,56.00
2019-04-21T04:18:29.889Z,64.00
2019-04-21T04:19:19.122Z,68.00
2019-04-21T04:22:24.899Z,88.00
2019-04-21T04:23:20.939Z,96.00
2019-04-21T04:24:22.320Z,104.00
2019-04-21T04:25:21.425Z,116.00
2019-04-21T04:26:22.130Z,124.00
2019-04-21T04:27:36.896Z,132.00
2019-04-21T04:28:18.821Z,144.00
2019-04-21T04:30:25.408Z,164.00
2019-04-21T04:31:34.749Z,172.00
2019-04-21T04:32:25.217Z,184.00
2019-04-21T04:33:30.346Z,196.00
2019-04-21T04:34:22.834Z,208.00
2019-04-21T04:36:46.987Z,232.00
2019-04-21T04:38:24.541Z,256.00
2019-04-21T04:40:23.271Z,284.00
2019-04-21T04:41:26.554Z,296.00
2019-04-21T04:42:31.457Z,312.00
2019-04-21T04:44:24.893Z,340.00
2019-04-21T04:45:23.734Z,360.00
2019-04-21T04:46:18.399Z,376.00
2019-04-21T04:47:18.285Z,392.00
2019-04-21T04:48:20.230Z,404.00
2019-04-21T04:49:23.993Z,420.00
2019-04-21T04:50:19.723Z,436.00
2019-04-21T04:51:30.636Z,456.00
2019-04-21T04:52:28.905Z,468.00
2019-04-21T04:53:20.343Z,488.00
2019-04-21T04:54:31.987Z,508.00
2019-04-21T04:55:19.069Z,524.00
2019-04-21T04:56:20.611Z,540.00
2019-04-21T04:57:27.429Z,560.00
2019-04-21T04:58:21.976Z,576.00
2019-04-21T04:59:36.534Z,592.00
2019-04-21T05:00:28.853Z,608.00
2019-04-21T05:03:33.137Z,660.00
2019-04-21T05:04:24.150Z,676.00
2019-04-21T05:06:37.221Z,708.00
2019-04-21T05:07:23.486Z,728.00
2019-04-21T05:08:33.847Z,744.00
2019-04-21T05:09:33.680Z,756.00
2019-04-21T05:10:17.602Z,772.00
2019-04-21T05:11:37.706Z,788.00
2019-04-21T05:12:11.302Z,808.00
2019-04-21T05:13:18.416Z,820.00
2019-04-21T05:14:18.384Z,832.00
2019-04-21T05:15:12.663Z,844.00
2019-04-21T05:16:24.097Z,864.00
2019-04-21T05:17:23.031Z,876.00
2019-04-21T05:18:13.578Z,888.00
2019-04-21T05:20:16.550Z,920.00
2019-04-21T05:21:24.419Z,932.00
2019-04-21T05:22:19.913Z,948.00
2019-04-21T05:23:14.465Z,964.00
2019-04-21T05:24:07.499Z,972.00
2019-04-21T05:25:05.423Z,988.00
2019-04-21T05:26:00.038Z,996.00
2019-04-21T05:27:03.185Z,1008.00
2019-04-21T05:28:06.368Z,1020.00
2019-04-21T05:29:02.072Z,1032.00
2019-04-21T05:30:10.176Z,1040.00
2019-04-21T05:31:14.065Z,1052.00
2019-04-21T05:33:09.502Z,1076.00
2019-04-21T05:34:14.982Z,1084.00
2019-04-21T05:35:08.016Z,1100.00
2019-04-21T05:36:11.491Z,1108.00
2019-04-21T05:37:07.243Z,1124.00
2019-04-21T05:38:12.803Z,1132.00
2019-04-21T05:39:02.529Z,1140.00
2019-04-21T05:40:00.423Z,1156.00
2019-04-21T05:41:02.182Z,1160.00
2019-04-21T05:41:56.502Z,1172.00
2019-04-21T05:43:06.219Z,1184.00
2019-04-21T05:44:09.906Z,1200.00
2019-04-21T05:45:16.067Z,1208.00
2019-04-21T05:46:14.264Z,1220.00
2019-04-21T05:47:20.582Z,1236.00
2019-04-21T05:48:17.865Z,1244.00
2019-04-21T05:49:09.303Z,1256.00
2019-04-21T05:50:06.591Z,1268.00
2019-04-21T05:51:07.085Z,1276.00
2019-04-21T05:52:05.519Z,1288.00
2019-04-21T05:52:58.557Z,1296.00
2019-04-21T05:54:15.118Z,1308.00
2019-04-21T05:55:11.865Z,1312.00
2019-04-21T05:56:09.974Z,1324.00
2019-04-21T05:57:20.664Z,1328.00
2019-04-21T05:58:06.836Z,1340.00
2019-04-21T05:59:09.702Z,1348.00
2019-04-21T06:00:08.849Z,1356.00
2019-04-21T06:01:15.133Z,1364.00
2019-04-21T06:02:20.201Z,1368.00
2019-04-21T06:03:18.405Z,1376.00
2019-04-21T06:04:16.837Z,1384.00
2019-04-21T06:05:34.973Z,1396.00
2019-04-21T06:06:13.582Z,1408.00
2019-04-21T06:07:21.563Z,1424.00
2019-04-21T06:08:13.353Z,1440.00
2019-04-21T06:09:11.462Z,1460.00
2019-04-21T06:10:13.843Z,1472.00
2019-04-21T06:11:23.889Z,1492.00
2019-04-21T06:12:08.730Z,1492.00
2019-04-21T06:13:13.030Z,1500.00
2019-04-21T06:14:16.944Z,1504.00
2019-04-21T06:15:07.956Z,1504.00
2019-04-21T06:16:07.365Z,1508.00
2019-04-21T06:17:13.479Z,1512.00
2019-04-21T06:18:13.238Z,1528.00
2019-04-21T06:19:11.379Z,1536.00
2019-04-21T06:20:10.360Z,1548.00
2019-04-21T06:21:09.849Z,1552.00
2019-04-21T06:22:10.464Z,1552.00
2019-04-21T06:23:11.557Z,1556.00
2019-04-21T06:24:12.687Z,1564.00
2019-04-21T06:25:31.665Z,1564.00
2019-04-21T06:26:28.236Z,1572.00
2019-04-21T06:28:14.925Z,1592.00
2019-04-21T06:29:13.399Z,1592.00
2019-04-21T06:30:06.562Z,1592.00
2019-04-21T06:33:14.101Z,1576.00
2019-04-21T06:34:08.215Z,1612.00
2019-04-21T06:35:19.730Z,1628.00
2019-04-21T06:36:31.216Z,1628.00
2019-04-21T06:37:32.684Z,1628.00
2019-04-21T06:38:16.616Z,1636.00
2019-04-21T06:40:23.066Z,1644.00
2019-04-21T06:41:13.537Z,1648.00
2019-04-21T06:42:09.759Z,1656.00
2019-04-21T06:43:24.646Z,1660.00
2019-04-21T06:44:23.951Z,1664.00
2019-04-21T06:45:12.984Z,1668.00
2019-04-21T06:46:13.589Z,1672.00
2019-04-21T06:47:15.570Z,1680.00
2019-04-21T06:48:12.203Z,1680.00
2019-04-21T06:49:19.442Z,1688.00
2019-04-21T06:50:07.547Z,1688.00
2019-04-21T06:51:17.175Z,1692.00
2019-04-21T06:52:18.153Z,1692.00
2019-04-21T06:53:13.545Z,1692.00
2019-04-21T06:54:09.436Z,1692.00
2019-04-21T06:55:13.870Z,1700.00
2019-04-21T06:56:13.917Z,1704.00
2019-04-21T06:57:11.373Z,1704.00
2019-04-21T06:58:11.627Z,1704.00
2019-04-21T06:59:01.403Z,1712.00
2019-04-21T07:00:06.481Z,1716.00
2019-04-21T07:01:10.183Z,1716.00
2019-04-21T07:02:32.152Z,1720.00
2019-04-21T07:03:19.313Z,1720.00
2019-04-21T07:04:18.573Z,1724.00
2019-04-21T07:05:08.993Z,1724.00
2019-04-21T07:06:13.160Z,1724.00
2019-04-21T07:07:06.800Z,1724.00
2019-04-21T07:08:23.303Z,1724.00
2019-04-21T07:09:31.308Z,1724.00
2019-04-21T07:10:16.942Z,1724.00
2019-04-21T07:11:08.347Z,1724.00
2019-04-21T07:12:06.110Z,1724.00
2019-04-21T07:13:09.311Z,1724.00
2019-04-21T07:14:28.043Z,1720.00
2019-04-21T07:15:09.957Z,1720.00
2019-04-21T07:16:17.572Z,1720.00
2019-04-21T07:17:15.983Z,1724.00
2019-04-21T07:18:11.018Z,1724.00
2019-04-21T07:19:22.140Z,1720.00
2019-04-21T07:21:08.213Z,1724.00
2019-04-21T07:22:15.805Z,1720.00
2019-04-21T07:23:13.440Z,1720.00
2019-04-21T07:24:14.252Z,1720.00
2019-04-21T07:25:12.399Z,1720.00
2019-04-21T07:26:11.094Z,1720.00
2019-04-21T07:27:11.695Z,1720.00
2019-04-21T07:28:10.946Z,1720.00
2019-04-21T07:29:12.222Z,1712.00
2019-04-21T07:30:26.642Z,1712.00
2019-04-21T07:31:09.950Z,1708.00
2019-04-21T07:32:10.451Z,1716.00
2019-04-21T07:34:30.568Z,1716.00
2019-04-21T07:35:17.526Z,1712.00
2019-04-21T07:36:17.433Z,1712.00
2019-04-21T07:37:06.024Z,1708.00
2019-04-21T07:38:03.004Z,1704.00
2019-04-21T07:39:09.055Z,1704.00
2019-04-21T07:40:05.440Z,1700.00
2019-04-21T07:41:02.608Z,1700.00
2019-04-21T07:42:06.885Z,1700.00
2019-04-21T07:43:04.164Z,1700.00
2019-04-21T07:44:01.731Z,1700.00
2019-04-21T07:45:05.233Z,1696.00
2019-04-21T07:46:02.690Z,1696.00
2019-04-21T07:47:06.043Z,1692.00
2019-04-21T07:48:08.279Z,1688.00
2019-04-21T07:49:11.381Z,1692.00
2019-04-21T07:50:06.823Z,1692.00
2019-04-21T07:51:11.222Z,1692.00
2019-04-21T07:52:11.383Z,1684.00
2019-04-21T07:53:19.419Z,1684.00
2019-04-21T07:54:15.334Z,1684.00
2019-04-21T07:55:20.246Z,1684.00
2019-04-21T07:55:50.975Z,1684.00
2019-04-21T07:56:59.379Z,1680.00
2019-04-21T07:58:22.669Z,1680.00
2019-04-21T07:59:05.187Z,1672.00
2019-04-21T08:00:20.704Z,1672.00
2019-04-21T08:01:12.213Z,1668.00
2019-04-21T08:02:14.171Z,1664.00
2019-04-21T08:03:08.111Z,1664.00
2019-04-21T08:04:08.496Z,1660.00
2019-04-21T08:06:08.371Z,1656.00
2019-04-21T08:07:07.255Z,1652.00
2019-04-21T08:07:59.663Z,1648.00
2019-04-21T08:09:07.367Z,1644.00
2019-04-21T08:10:02.870Z,1644.00
2019-04-21T08:11:02.921Z,1640.00
2019-04-21T08:12:00.333Z,1636.00
2019-04-21T08:13:09.944Z,1632.00
2019-04-21T08:15:18.168Z,1628.00
2019-04-21T08:17:09.807Z,1620.00
2019-04-21T08:18:09.210Z,1620.00
2019-04-21T08:19:09.606Z,1612.00
2019-04-21T08:19:59.081Z,1612.00
2019-04-21T08:21:05.749Z,1608.00
2019-04-21T08:22:12.589Z,1608.00
2019-04-21T08:23:05.972Z,1604.00
2019-04-21T08:24:13.574Z,1600.00
2019-04-21T08:25:09.181Z,1596.00
2019-04-21T08:26:31.180Z,1592.00
2019-04-21T08:27:13.836Z,1584.00
2019-04-21T08:28:05.980Z,1580.00
2019-04-21T08:29:14.500Z,1580.00
2019-04-21T08:30:04.993Z,1572.00
2019-04-21T08:31:09.826Z,1568.00
2019-04-21T08:32:31.618Z,1564.00
2019-04-21T08:34:07.683Z,1552.00
2019-04-21T08:35:33.846Z,1548.00
2019-04-21T08:37:08.809Z,1544.00
2019-04-21T08:38:11.809Z,1544.00
2019-04-21T08:39:08.072Z,1540.00
2019-04-21T08:40:09.582Z,1532.00
2019-04-21T08:41:08.685Z,1532.00
2019-04-21T08:42:08.551Z,1528.00
2019-04-21T08:43:02.910Z,1524.00
2019-04-21T08:44:02.005Z,1524.00
2019-04-21T08:45:07.687Z,1520.00
2019-04-21T08:46:11.205Z,1516.00
2019-04-21T08:47:07.464Z,1512.00
2019-04-21T08:48:05.861Z,1508.00
2019-04-21T08:49:08.041Z,1508.00
2019-04-21T08:50:08.436Z,1504.00
2019-04-21T08:51:22.440Z,1500.00
2019-04-21T08:52:13.826Z,1500.00
2019-04-21T08:53:07.095Z,1492.00
2019-04-21T08:54:09.287Z,1488.00
2019-04-21T08:55:10.910Z,1488.00
2019-04-21T08:56:09.989Z,1484.00
2019-04-21T08:57:10.383Z,1476.00
2019-04-21T08:59:12.793Z,1468.00
2019-04-21T09:00:05.353Z,1464.00
2019-04-21T09:01:10.575Z,1464.00
2019-04-21T09:02:06.278Z,1456.00
2019-04-21T09:03:06.789Z,1456.00
2019-04-21T09:04:11.125Z,1452.00
2019-04-21T09:05:09.451Z,1452.00
2019-04-21T09:06:10.102Z,1448.00
2019-04-21T09:08:06.703Z,1448.00
2019-04-21T09:09:07.862Z,1444.00
2019-04-21T09:10:03.174Z,1440.00
2019-04-21T09:10:59.386Z,1440.00
2019-04-21T09:12:05.791Z,1440.00
2019-04-21T09:13:08.411Z,1436.00
2019-04-21T09:14:01.156Z,1432.00
2019-04-21T09:15:08.379Z,1428.00
2019-04-21T09:15:59.440Z,1428.00
2019-04-21T09:17:00.436Z,1424.00
2019-04-21T09:17:57.974Z,1424.00
2019-04-21T09:18:59.781Z,1424.00
2019-04-21T09:20:13.960Z,1420.00
2019-04-21T09:21:07.270Z,1420.00
2019-04-21T09:22:17.904Z,1420.00
2019-04-21T09:23:06.488Z,1408.00
2019-04-21T09:24:04.568Z,1408.00
2019-04-21T09:25:01.635Z,1408.00
2019-04-21T09:26:05.581Z,1400.00
2019-04-21T09:27:03.746Z,1396.00
2019-04-21T09:28:02.345Z,1392.00
2019-04-21T09:28:56.873Z,1392.00
2019-04-21T09:29:53.493Z,1388.00
2019-04-21T09:30:52.327Z,1380.00
2019-04-21T09:31:47.747Z,1372.00
2019-04-21T09:32:44.558Z,1368.00
2019-04-21T09:33:48.988Z,1356.00
2019-04-21T09:34:47.080Z,1344.00
2019-04-21T09:35:49.194Z,1336.00
2019-04-21T09:36:51.232Z,1332.00
2019-04-21T09:37:54.571Z,1324.00
2019-04-21T09:38:54.694Z,1320.00
2019-04-21T09:39:50.005Z,1312.00
2019-04-21T09:40:48.983Z,1312.00
2019-04-21T09:41:49.891Z,1304.00
2019-04-21T09:42:54.185Z,1300.00
2019-04-21T09:43:48.991Z,1296.00
2019-04-21T09:44:47.561Z,1284.00
2019-04-21T09:45:45.301Z,1272.00
2019-04-21T09:46:50.734Z,1272.00
2019-04-21T09:47:55.634Z,1268.00
2019-04-21T09:48:54.879Z,1264.00
2019-04-21T09:49:45.243Z,1252.00
2019-04-21T09:50:44.029Z,1248.00
2019-04-21T09:51:44.030Z,1244.00
2019-04-21T09:52:49.737Z,1236.00
2019-04-21T09:53:54.594Z,1232.00
2019-04-21T09:54:53.002Z,1224.00
2019-04-21T09:55:53.574Z,1224.00
2019-04-21T09:56:51.065Z,1224.00
2019-04-21T09:57:52.183Z,1224.00
2019-04-21T09:58:49.527Z,1224.00
2019-04-21T09:59:53.885Z,1228.00
2019-04-21T10:01:00.018Z,1224.00
2019-04-21T10:01:55.945Z,1224.00
2019-04-21T10:02:53.498Z,1228.00
2019-04-21T10:03:48.645Z,1224.00
2019-04-21T10:04:46.096Z,1228.00
2019-04-21T10:05:45.127Z,1228.00
2019-04-21T10:06:45.179Z,1228.00
2019-04-21T10:07:44.387Z,1228.00
2019-04-21T10:08:44.614Z,1228.00
2019-04-21T10:09:43.807Z,1228.00
2019-04-21T10:10:44.448Z,1228.00
2019-04-21T10:11:43.908Z,1224.00
2019-04-21T10:12:43.773Z,1224.00
2019-04-21T10:13:44.301Z,1224.00
2019-04-21T10:14:45.117Z,1224.00
2019-04-21T10:15:44.111Z,1224.00
2019-04-21T10:16:44.963Z,1224.00
2019-04-21T10:17:43.973Z,1224.00
2019-04-21T10:18:43.893Z,1228.00
2019-04-21T10:19:44.118Z,1224.00
2019-04-21T10:20:44.782Z,1228.00
2019-04-21T10:21:44.455Z,1224.00
2019-04-21T10:22:44.755Z,1220.00
2019-04-21T10:23:43.817Z,1220.00
2019-04-21T10:24:44.612Z,1220.00
2019-04-21T10:25:43.666Z,1216.00
2019-04-21T10:26:43.648Z,1216.00
2019-04-21T10:27:43.633Z,1216.00
2019-04-21T10:28:43.634Z,1216.00
2019-04-21T10:29:45.410Z,1216.00
2019-04-21T10:30:44.780Z,1220.00
2019-04-21T10:31:44.866Z,1220.00
2019-04-21T10:32:43.583Z,1224.00
2019-04-21T10:33:44.258Z,1224.00
2019-04-21T10:34:43.557Z,1224.00
2019-04-21T10:35:43.559Z,1224.00
2019-04-21T10:36:44.768Z,1224.00
2019-04-21T10:37:57.607Z,1228.00
2019-04-21T10:38:48.735Z,1232.00
2019-04-21T10:39:45.378Z,1232.00
2019-04-21T10:40:43.513Z,1228.00
2019-04-21T10:41:43.594Z,1228.00
2019-04-21T10:42:43.500Z,1228.00
2019-04-21T10:43:43.492Z,1232.00
2019-04-21T10:44:43.418Z,1232.00
2019-04-21T10:45:43.435Z,1232.00
2019-04-21T10:46:45.713Z,1228.00
2019-04-21T10:47:43.385Z,1240.00
2019-04-21T10:48:43.425Z,1244.00
2019-04-21T10:49:44.579Z,1240.00
2019-04-21T10:50:43.401Z,1240.00
2019-04-21T10:51:43.454Z,1240.00
2019-04-21T10:52:43.336Z,1240.00
2019-04-21T10:53:43.336Z,1240.00
2019-04-21T10:55:06.879Z,1232.00
2019-04-21T10:55:57.909Z,1236.00
2019-04-21T10:56:45.698Z,1236.00
2019-04-21T10:57:44.303Z,1232.00
2019-04-21T10:58:44.492Z,1236.00
2019-04-21T10:59:47.973Z,1236.00
2019-04-21T11:00:44.297Z,1232.00
2019-04-21T11:01:43.293Z,1232.00
2019-04-21T11:02:43.371Z,1228.00
2019-04-21T11:03:44.629Z,1228.00
2019-04-21T11:04:44.017Z,1228.00
2019-04-21T11:05:43.225Z,1228.00
2019-04-21T11:06:44.312Z,1228.00
2019-04-21T11:07:59.702Z,1232.00
2019-04-21T11:08:48.882Z,1236.00
2019-04-21T11:09:44.352Z,1236.00
2019-04-21T11:10:45.774Z,1236.00
2019-04-21T11:11:44.984Z,1232.00
2019-04-21T11:12:44.746Z,1236.00
2019-04-21T11:13:46.292Z,1232.00
2019-04-21T11:14:43.156Z,1236.00
2019-04-21T11:15:43.216Z,1236.00
2019-04-21T11:16:45.831Z,1232.00
2019-04-21T11:17:43.883Z,1236.00
2019-04-21T11:18:44.110Z,1232.00
2019-04-21T11:19:43.171Z,1232.00
2019-04-21T11:20:43.061Z,1236.00
2019-04-21T11:21:43.056Z,1236.00
2019-04-21T11:22:43.892Z,1232.00
2019-04-21T11:23:43.858Z,1236.00
2019-04-21T11:24:43.092Z,1236.00
2019-04-21T11:25:44.016Z,1236.00
2019-04-21T11:26:43.016Z,1236.00
2019-04-21T11:27:42.973Z,1240.00
2019-04-21T11:28:43.159Z,1240.00
2019-04-21T11:29:43.299Z,1244.00
2019-04-21T11:30:42.984Z,1244.00
2019-04-21T11:31:43.181Z,1244.00
2019-04-21T11:32:44.928Z,1248.00
2019-04-21T11:33:43.077Z,1248.00
2019-04-21T11:34:43.181Z,1252.00
2019-04-21T11:35:43.525Z,1252.00
2019-04-21T11:36:43.902Z,1256.00
2019-04-21T11:37:44.092Z,1252.00
2019-04-21T11:38:58.126Z,1248.00
2019-04-21T11:39:52.144Z,1252.00
2019-04-21T11:40:45.613Z,1252.00
2019-04-21T11:41:43.608Z,1248.00
2019-04-21T11:42:43.911Z,1248.00
2019-04-21T11:43:43.255Z,1248.00
2019-04-21T11:44:42.860Z,1244.00
2019-04-21T11:45:42.769Z,1244.00
2019-04-21T11:46:42.787Z,1240.00
2019-04-21T11:47:42.783Z,1240.00
2019-04-21T11:48:44.026Z,1240.00
2019-04-21T11:49:43.150Z,1240.00
2019-04-21T11:50:43.357Z,1240.00
2019-04-21T11:51:42.913Z,1236.00
2019-04-21T11:52:43.172Z,1240.00
2019-04-21T11:53:43.118Z,1240.00
2019-04-21T11:54:42.844Z,1240.00
2019-04-21T11:55:46.392Z,1240.00
2019-04-21T11:56:45.090Z,1240.00
2019-04-21T11:57:46.369Z,1240.00
2019-04-21T11:58:43.994Z,1236.00
2019-04-21T11:59:43.851Z,1236.00
2019-04-21T12:00:42.590Z,1236.00
2019-04-21T12:01:43.536Z,1232.00
2019-04-21T12:02:43.720Z,1228.00
2019-04-21T12:03:42.552Z,1232.00
2019-04-21T12:04:43.451Z,1232.00
2019-04-21T12:05:43.506Z,1236.00
2019-04-21T12:06:47.011Z,1240.00
2019-04-21T12:07:43.530Z,1244.00
2019-04-21T12:08:46.203Z,1244.00
2019-04-21T12:09:43.769Z,1244.00
2019-04-21T12:10:42.474Z,1244.00
2019-04-21T12:11:43.227Z,1244.00
2019-04-21T12:12:43.321Z,1232.00
2019-04-21T12:13:42.443Z,1240.00
2019-04-21T12:14:43.831Z,1240.00
2019-04-21T12:15:43.044Z,1240.00
2019-04-21T12:16:43.269Z,1236.00
2019-04-21T12:17:43.874Z,1232.00
2019-04-21T12:18:42.950Z,1228.00
2019-04-21T12:19:42.886Z,1232.00
2019-04-21T12:20:43.112Z,1228.00
2019-04-21T12:21:53.489Z,1228.00
2019-04-21T12:22:43.442Z,1228.00
2019-04-21T12:23:42.719Z,1232.00
2019-04-21T12:24:43.006Z,1232.00
2019-04-21T12:25:42.980Z,1232.00
2019-04-21T12:26:42.343Z,1236.00
2019-04-21T12:27:43.769Z,1236.00
2019-04-21T12:28:42.278Z,1240.00
2019-04-21T12:29:42.255Z,1228.00
2019-04-21T12:30:42.257Z,1232.00
2019-04-21T12:31:43.408Z,1232.00
2019-04-21T12:32:42.302Z,1232.00
2019-04-21T12:33:43.500Z,1224.00
2019-04-21T12:34:42.219Z,1224.00
2019-04-21T12:35:42.199Z,1228.00
2019-04-21T12:36:43.678Z,1220.00
2019-04-21T12:37:42.796Z,1216.00
2019-04-21T12:38:49.003Z,1220.00
2019-04-21T12:39:43.154Z,1216.00
2019-04-21T12:40:42.357Z,1212.00
2019-04-21T12:41:42.612Z,1208.00
2019-04-21T12:42:43.626Z,1204.00
2019-04-21T12:43:42.598Z,1204.00
2019-04-21T12:44:43.318Z,1204.00
2019-04-21T12:45:42.135Z,1204.00
2019-04-21T12:46:42.088Z,1208.00
2019-04-21T12:47:42.083Z,1204.00
2019-04-21T12:48:42.139Z,1204.00
2019-04-21T12:49:43.480Z,1200.00
2019-04-21T12:50:42.022Z,1200.00
2019-04-21T12:51:42.072Z,1200.00
2019-04-21T12:52:42.137Z,1200.00
2019-04-21T12:53:43.245Z,1196.00
2019-04-21T12:54:41.993Z,1196.00
2019-04-21T12:55:45.865Z,1200.00
2019-04-21T12:56:43.244Z,1200.00
2019-04-21T12:57:43.446Z,1200.00
2019-04-21T12:58:41.957Z,1204.00
2019-04-21T12:59:42.644Z,1200.00
2019-04-21T13:00:42.900Z,1200.00
2019-04-21T13:01:43.081Z,1192.00
2019-04-21T13:02:41.919Z,1192.00
2019-04-21T13:03:41.973Z,1192.00
2019-04-21T13:04:42.130Z,1196.00
2019-04-21T13:05:43.130Z,1196.00
2019-04-21T13:06:41.840Z,1196.00
2019-04-21T13:07:41.911Z,1196.00
2019-04-21T13:08:50.933Z,1200.00
2019-04-21T13:09:44.198Z,1196.00
2019-04-21T13:10:42.298Z,1196.00
2019-04-21T13:11:41.781Z,1196.00
2019-04-21T13:12:41.802Z,1196.00
2019-04-21T13:13:42.089Z,1196.00
2019-04-21T13:14:42.110Z,1196.00
2019-04-21T13:15:43.247Z,1196.00
2019-04-21T13:16:41.737Z,1200.00
2019-04-21T13:17:44.353Z,1196.00
2019-04-21T13:18:41.845Z,1200.00
2019-04-21T13:19:41.693Z,1196.00
2019-04-21T13:20:42.259Z,1196.00
2019-04-21T13:21:42.382Z,1196.00
2019-04-21T13:22:41.982Z,1200.00
2019-04-21T13:23:42.930Z,1200.00
2019-04-21T13:24:42.101Z,1204.00
2019-04-21T13:25:41.767Z,1200.00